createdAt,value
2022-10-06T00:00:01.853Z,8.30
2022-10-06T00:02:36.635Z,8.15
2022-10-06T00:05:08.864Z,10.48
2022-10-06T00:07:40.791Z,8.90
2022-10-06T00:10:12.770Z,8.25
2022-10-06T00:12:47.050Z,8.82
2022-10-06T00:15:22.940Z,8.63
2022-10-06T00:17:55.560Z,8.23
2022-10-06T00:20:27.924Z,9.70
2022-10-06T00:22:59.882Z,9.38
2022-10-06T00:25:33.421Z,9.13
2022-10-06T00:28:05.499Z,9.38
2022-10-06T00:30:38.880Z,10.23
2022-10-06T00:33:13.103Z,12.35
2022-10-06T00:35:45.630Z,10.32
2022-10-06T00:38:17.564Z,13.10
2022-10-06T00:40:51.623Z,11.55
2022-10-06T00:43:45.878Z,12.90
2022-10-06T00:46:28.503Z,13.77
2022-10-06T00:49:06.348Z,12.82
2022-10-06T00:51:42.030Z,12.60
2022-10-06T00:54:14.659Z,15.25
2022-10-06T00:56:47.535Z,12.02
2022-10-06T00:59:20.469Z,13.48
2022-10-06T01:01:59.594Z,15.98
2022-10-06T01:04:34.070Z,14.10
2022-10-06T01:07:07.845Z,12.50
2022-10-06T01:09:42.084Z,12.63
2022-10-06T01:12:14.899Z,10.77
2022-10-06T01:14:47.476Z,11.43
2022-10-06T01:17:23.879Z,12.00
2022-10-06T01:20:02.015Z,9.35
2022-10-06T01:22:37.599Z,10.15
2022-10-06T01:25:11.417Z,10.18
2022-10-06T01:27:45.421Z,10.55
2022-10-06T01:30:25.008Z,10.23
2022-10-06T01:32:57.074Z,11.80
2022-10-06T01:35:30.123Z,11.43
2022-10-06T01:38:03.808Z,10.82
2022-10-06T01:40:36.312Z,10.50
2022-10-06T01:43:08.402Z,11.32
2022-10-06T01:45:40.434Z,11.70
2022-10-06T01:48:13.919Z,10.43
2022-10-06T01:50:46.098Z,9.23
2022-10-06T01:53:20.560Z,11.27
2022-10-06T01:55:57.205Z,10.20
2022-10-06T01:58:30.872Z,9.77
2022-10-06T02:01:07.203Z,8.60
2022-10-06T02:03:40.843Z,10.23
2022-10-06T02:06:14.115Z,9.32
2022-10-06T02:08:49.633Z,9.95
2022-10-06T02:11:22.793Z,10.02
2022-10-06T02:13:55.537Z,11.40
2022-10-06T02:16:28.338Z,11.63
2022-10-06T02:19:00.796Z,11.98
2022-10-06T02:21:33.189Z,11.25
2022-10-06T02:24:06.706Z,11.02
2022-10-06T02:26:38.874Z,9.35
2022-10-06T02:29:10.957Z,11.23
2022-10-06T02:31:43.078Z,11.05
2022-10-06T02:34:15.251Z,11.55
2022-10-06T02:36:47.258Z,11.80
2022-10-06T02:39:20.785Z,11.25
2022-10-06T02:41:52.764Z,10.13
2022-10-06T02:44:25.350Z,11.63
2022-10-06T02:46:59.634Z,12.20
2022-10-06T02:49:32.089Z,10.93
2022-10-06T02:52:04.037Z,10.73
2022-10-06T02:54:37.468Z,11.45
2022-10-06T02:57:09.574Z,10.65
2022-10-06T02:59:43.022Z,10.35
2022-10-06T03:02:15.464Z,11.05
2022-10-06T03:04:47.538Z,10.60
2022-10-06T03:07:19.502Z,10.63
2022-10-06T03:09:52.830Z,11.20
2022-10-06T03:12:25.351Z,10.85
2022-10-06T03:14:57.570Z,10.68
2022-10-06T03:17:29.999Z,12.00
2022-10-06T03:20:02.500Z,11.10
2022-10-06T03:22:37.204Z,11.13
2022-10-06T03:25:11.760Z,10.38
2022-10-06T03:27:44.858Z,10.45
2022-10-06T03:30:17.168Z,11.60
2022-10-06T03:32:49.780Z,11.73
2022-10-06T03:35:21.897Z,10.52
2022-10-06T03:37:53.933Z,10.73
2022-10-06T03:40:27.688Z,10.98
2022-10-06T03:43:00.241Z,10.55
2022-10-06T03:45:32.325Z,10.00
2022-10-06T03:48:04.404Z,10.45
2022-10-06T03:50:36.643Z,11.40
2022-10-06T03:53:09.446Z,11.25
2022-10-06T03:55:42.777Z,11.15
2022-10-06T03:58:16.868Z,10.43
2022-10-06T04:00:48.961Z,10.43
2022-10-06T04:03:20.965Z,10.57
2022-10-06T04:05:54.602Z,10.85
2022-10-06T04:08:27.563Z,10.95
2022-10-06T04:11:07.265Z,9.80
2022-10-06T04:13:40.521Z,10.05
2022-10-06T04:16:14.007Z,10.63
2022-10-06T04:18:49.830Z,10.32
2022-10-06T04:21:22.891Z,10.18
2022-10-06T04:23:56.157Z,11.65
2022-10-06T04:26:33.423Z,10.25
2022-10-06T04:29:06.463Z,10.43
2022-10-06T04:31:39.308Z,10.18
2022-10-06T04:34:13.796Z,10.88
2022-10-06T04:36:47.527Z,10.57
2022-10-06T04:39:21.427Z,11.52
2022-10-06T04:41:55.557Z,10.05
2022-10-06T04:44:31.845Z,10.93
2022-10-06T04:47:06.924Z,11.27
2022-10-06T04:49:39.281Z,11.38
2022-10-06T04:52:11.384Z,10.80
2022-10-06T04:54:46.128Z,10.00
2022-10-06T04:57:19.587Z,9.60
2022-10-06T05:00:14.035Z,10.30
2022-10-06T05:02:47.812Z,9.32
2022-10-06T05:05:20.543Z,10.45
2022-10-06T05:07:54.131Z,9.98
2022-10-06T05:10:28.519Z,10.25
2022-10-06T05:13:03.812Z,10.50
2022-10-06T05:15:36.125Z,12.30
2022-10-06T05:18:08.389Z,14.38
2022-10-06T05:20:40.423Z,10.50
2022-10-06T05:23:12.382Z,11.40
2022-10-06T05:25:50.610Z,10.45
2022-10-06T05:28:25.738Z,11.35
2022-10-06T05:30:59.818Z,12.25
2022-10-06T05:33:33.910Z,10.73
2022-10-06T05:36:09.795Z,11.00
2022-10-06T05:38:41.867Z,11.05
2022-10-06T05:41:16.025Z,10.18
2022-10-06T05:43:51.093Z,11.02
2022-10-06T05:46:25.224Z,25.30
2022-10-06T05:49:00.832Z,14.70
2022-10-06T05:51:36.982Z,12.45
2022-10-06T05:54:14.460Z,11.70
2022-10-06T05:56:46.603Z,12.07
2022-10-06T05:59:19.976Z,10.70
2022-10-06T06:01:52.386Z,10.45
2022-10-06T06:04:32.477Z,10.13
2022-10-06T06:07:05.518Z,9.88
2022-10-06T06:09:38.290Z,10.25
2022-10-06T06:12:10.323Z,10.48
2022-10-06T06:17:51.337Z,9.68
2022-10-06T06:20:23.609Z,9.55
2022-10-06T06:22:55.582Z,8.95
2022-10-06T06:25:31.145Z,10.07
2022-10-06T06:28:03.514Z,10.73
2022-10-06T06:30:36.861Z,9.50
2022-10-06T06:33:08.849Z,9.65
2022-10-06T06:35:40.799Z,9.80
2022-10-06T06:38:12.857Z,8.93
2022-10-06T06:40:44.935Z,9.63
2022-10-06T06:43:18.583Z,9.88
2022-10-06T06:46:18.973Z,10.00
2022-10-06T06:49:05.374Z,9.10
2022-10-06T06:51:43.720Z,10.10
2022-10-06T06:54:16.530Z,9.55
2022-10-06T06:56:49.974Z,9.73
2022-10-06T06:59:25.291Z,11.23
2022-10-06T07:02:01.433Z,10.35
2022-10-06T07:04:37.392Z,10.38
2022-10-06T07:07:11.405Z,9.98
2022-10-06T07:09:43.759Z,8.52
2022-10-06T07:12:17.689Z,9.57
2022-10-06T07:15:20.575Z,10.75
2022-10-06T07:18:16.905Z,9.77
2022-10-06T07:21:07.260Z,14.98
2022-10-06T07:26:31.125Z,9.68
2022-10-06T07:29:03.957Z,10.48
2022-10-06T07:31:37.823Z,11.18
2022-10-06T07:34:11.278Z,9.13
2022-10-06T07:36:44.573Z,9.27
2022-10-06T07:39:16.584Z,9.35
2022-10-06T07:41:48.648Z,9.55
2022-10-06T07:44:20.731Z,10.02
2022-10-06T07:46:52.791Z,9.52
2022-10-06T07:49:39.173Z,9.18
2022-10-06T07:52:11.543Z,10.13
2022-10-06T07:54:45.138Z,8.75
2022-10-06T07:57:35.414Z,8.88
2022-10-06T08:00:08.620Z,7.47
2022-10-06T08:02:46.649Z,8.15
2022-10-06T08:05:19.996Z,8.52
2022-10-06T08:07:52.573Z,12.93
2022-10-06T08:10:24.614Z,10.88
2022-10-06T08:12:56.629Z,8.07
2022-10-06T08:15:28.567Z,12.50
2022-10-06T08:18:01.151Z,11.00
2022-10-06T08:20:34.481Z,9.80
2022-10-06T08:23:08.721Z,10.73
2022-10-06T08:25:44.084Z,10.70
2022-10-06T08:28:16.092Z,11.10
2022-10-06T08:30:49.304Z,10.93
2022-10-06T08:33:21.635Z,12.77
2022-10-06T08:35:55.033Z,9.63
2022-10-06T08:38:27.000Z,9.35
2022-10-06T08:40:59.063Z,7.68
2022-10-06T08:43:32.720Z,8.27
2022-10-06T08:46:05.019Z,8.27
2022-10-06T08:48:38.898Z,8.30
2022-10-06T08:51:25.483Z,7.88
2022-10-06T08:54:05.812Z,7.75
2022-10-06T08:59:17.349Z,7.72
2022-10-06T09:01:51.561Z,8.30
2022-10-06T09:04:28.815Z,8.75
2022-10-06T09:07:06.563Z,9.18
2022-10-06T09:09:57.816Z,8.07
2022-10-06T09:12:35.348Z,8.15
2022-10-06T09:15:22.663Z,7.22
2022-10-06T09:18:00.367Z,8.07
2022-10-06T09:20:36.901Z,9.82
2022-10-06T09:23:16.831Z,7.25
2022-10-06T09:25:49.843Z,6.72
2022-10-06T09:28:21.918Z,8.20
2022-10-06T09:30:55.499Z,8.27
2022-10-06T09:33:32.154Z,10.20
2022-10-06T09:36:09.088Z,10.00
2022-10-06T09:38:53.907Z,10.00
2022-10-06T09:41:29.490Z,8.40
2022-10-06T09:44:04.980Z,8.98
2022-10-06T09:46:41.870Z,8.43
2022-10-06T09:49:18.566Z,8.75
2022-10-06T09:52:00.788Z,9.18
2022-10-06T09:54:35.062Z,10.00
2022-10-06T09:57:16.221Z,10.02
2022-10-06T09:59:48.763Z,13.45
2022-10-06T10:02:27.349Z,13.60
2022-10-06T10:04:59.508Z,9.88
2022-10-06T10:07:31.630Z,9.20
2022-10-06T10:10:22.649Z,9.70
2022-10-06T10:12:56.635Z,8.80
2022-10-06T10:15:31.546Z,6.55
2022-10-06T10:18:11.240Z,6.60
2022-10-06T10:20:51.388Z,5.78
2022-10-06T10:23:31.573Z,5.97
2022-10-06T10:26:26.941Z,5.10
2022-10-06T10:29:18.696Z,5.20
2022-10-06T10:32:02.512Z,4.60
2022-10-06T10:34:55.733Z,4.15
2022-10-06T10:37:35.709Z,4.47
2022-10-06T10:40:15.697Z,4.97
2022-10-06T10:42:52.586Z,4.60
2022-10-06T10:45:32.289Z,4.07
2022-10-06T10:48:11.686Z,4.53
2022-10-06T10:50:50.055Z,4.30
2022-10-06T10:53:31.266Z,3.70
2022-10-06T10:56:05.545Z,3.78
2022-10-06T10:58:41.831Z,3.10
2022-10-06T11:01:25.731Z,3.10
2022-10-06T11:03:59.164Z,3.60
2022-10-06T11:06:54.705Z,3.25
2022-10-06T11:09:34.930Z,5.50
2022-10-06T11:12:18.576Z,3.95
2022-10-06T11:15:02.312Z,3.20
2022-10-06T11:17:44.402Z,2.72
2022-10-06T11:20:36.746Z,2.40
2022-10-06T11:23:49.599Z,2.00
2022-10-06T11:26:35.681Z,1.85
2022-10-06T11:29:19.480Z,2.25
2022-10-06T11:32:01.610Z,1.50
2022-10-06T11:34:33.719Z,1.73
2022-10-06T11:37:19.057Z,1.70
2022-10-06T11:39:59.706Z,1.33
2022-10-06T11:42:41.694Z,1.33
2022-10-06T11:45:15.553Z,1.70
2022-10-06T11:48:15.329Z,1.48
2022-10-06T11:50:49.246Z,1.17
2022-10-06T11:53:42.158Z,1.20
2022-10-06T11:56:44.024Z,1.08
2022-10-06T11:59:27.181Z,1.35
2022-10-06T12:02:00.958Z,1.08
2022-10-06T12:04:34.554Z,0.80
2022-10-06T12:07:06.656Z,0.88
2022-10-06T12:09:51.735Z,1.35
2022-10-06T12:13:13.943Z,1.90
2022-10-06T12:19:19.781Z,1.70
2022-10-06T12:22:01.320Z,1.70
2022-10-06T12:24:41.385Z,3.38
2022-10-06T12:27:26.592Z,2.72
2022-10-06T12:30:04.515Z,2.85
2022-10-06T12:32:50.367Z,2.28
2022-10-06T12:35:30.489Z,1.27
2022-10-06T12:38:06.099Z,1.23
2022-10-06T12:41:02.394Z,1.00
2022-10-06T12:43:49.763Z,1.15
2022-10-06T12:46:32.948Z,1.35
2022-10-06T12:49:25.338Z,1.63
2022-10-06T12:52:06.449Z,1.90
2022-10-06T12:54:47.240Z,1.27
2022-10-06T12:57:20.690Z,0.77
2022-10-06T12:59:52.666Z,0.75
2022-10-06T13:02:27.383Z,0.95
2022-10-06T13:05:01.600Z,1.05
2022-10-06T13:07:34.319Z,0.73
2022-10-06T13:10:20.540Z,1.13
2022-10-06T13:12:52.769Z,0.80
2022-10-06T13:15:29.599Z,1.17
2022-10-06T13:18:11.032Z,0.80
2022-10-06T13:20:46.406Z,0.80
2022-10-06T13:23:25.834Z,1.35
2022-10-06T13:26:01.309Z,1.30
2022-10-06T13:28:46.909Z,0.93
2022-10-06T13:31:22.133Z,0.98
2022-10-06T13:33:59.664Z,0.90
2022-10-06T13:36:34.200Z,1.00
2022-10-06T13:39:11.653Z,0.90
2022-10-06T13:41:46.634Z,1.60
2022-10-06T13:44:31.348Z,0.75
2022-10-06T13:47:07.344Z,0.85
2022-10-06T13:49:49.770Z,0.90
2022-10-06T13:52:29.017Z,1.17
2022-10-06T13:55:03.053Z,1.80
2022-10-06T13:57:39.799Z,1.58
2022-10-06T14:00:21.699Z,1.33
2022-10-06T14:02:55.360Z,1.65
2022-10-06T14:05:34.814Z,1.50
2022-10-06T14:08:20.138Z,1.40
2022-10-06T14:10:54.412Z,1.00
2022-10-06T14:13:31.296Z,1.55
2022-10-06T14:16:07.096Z,1.25
2022-10-06T14:18:41.654Z,1.10
2022-10-06T14:21:19.072Z,1.33
2022-10-06T14:23:51.738Z,0.85
2022-10-06T14:26:25.722Z,0.98
2022-10-06T14:28:59.346Z,0.80
2022-10-06T14:31:34.085Z,0.73
2022-10-06T14:34:14.082Z,0.65
2022-10-06T14:36:47.711Z,0.85
2022-10-06T14:39:20.100Z,0.95
2022-10-06T14:41:52.093Z,0.95
2022-10-06T14:44:25.424Z,1.00
2022-10-06T14:46:57.975Z,0.70
2022-10-06T14:49:30.142Z,0.82
2022-10-06T14:52:02.269Z,1.45
2022-10-06T14:54:34.833Z,0.82
2022-10-06T14:57:06.811Z,0.80
2022-10-06T14:59:40.233Z,0.85
2022-10-06T15:02:12.220Z,1.20
2022-10-06T15:04:44.171Z,1.05
2022-10-06T15:07:34.810Z,1.10
2022-10-06T15:10:07.736Z,0.85
2022-10-06T15:12:40.288Z,0.95
2022-10-06T15:15:15.047Z,1.27
2022-10-06T15:17:47.141Z,1.08
2022-10-06T15:20:20.364Z,1.67
2022-10-06T15:22:52.371Z,1.20
2022-10-06T15:25:42.695Z,1.15
2022-10-06T15:28:33.146Z,1.33
2022-10-06T15:31:06.652Z,0.98
2022-10-06T15:33:38.624Z,0.98
2022-10-06T15:36:18.896Z,1.25
2022-10-06T15:38:51.415Z,1.38
2022-10-06T15:41:23.541Z,0.90
2022-10-06T15:43:55.724Z,1.00
2022-10-06T15:46:31.365Z,1.08
2022-10-06T15:49:05.566Z,1.20
2022-10-06T15:51:45.173Z,0.77
2022-10-06T15:54:22.346Z,1.70
2022-10-06T15:56:55.663Z,1.40
2022-10-06T15:59:29.285Z,1.83
2022-10-06T16:02:04.941Z,1.30
2022-10-06T16:04:38.207Z,1.20
2022-10-06T16:07:12.131Z,3.00
2022-10-06T16:09:45.983Z,1.73
2022-10-06T16:12:20.030Z,1.40
2022-10-06T16:14:52.088Z,2.85
2022-10-06T16:17:25.378Z,1.45
2022-10-06T16:19:57.289Z,1.60
2022-10-06T16:22:29.235Z,1.52
2022-10-06T16:25:01.168Z,1.90
2022-10-06T16:27:33.715Z,1.73
2022-10-06T16:30:07.345Z,6.18
2022-10-06T16:32:41.210Z,1.60
2022-10-06T16:35:18.089Z,8.80
2022-10-06T16:37:50.372Z,15.15
2022-10-06T16:40:23.148Z,4.38
2022-10-06T16:42:55.555Z,3.00
2022-10-06T16:45:27.460Z,2.25
2022-10-06T16:48:00.800Z,2.08
2022-10-06T16:50:32.720Z,1.45
2022-10-06T16:53:04.644Z,1.48
2022-10-06T16:55:37.135Z,1.70
2022-10-06T16:58:09.877Z,2.72
2022-10-06T17:00:42.239Z,2.25
2022-10-06T17:03:15.628Z,2.05
2022-10-06T17:05:47.564Z,1.50
2022-10-06T17:08:22.716Z,2.10
2022-10-06T17:11:03.125Z,1.42
2022-10-06T17:16:09.633Z,2.35
2022-10-06T17:18:46.565Z,2.20
2022-10-06T17:21:43.391Z,2.00
2022-10-06T17:24:11.071Z,2.10
2022-10-06T17:26:44.298Z,1.70
2022-10-06T17:29:18.936Z,1.95
2022-10-06T17:31:58.800Z,2.17
2022-10-06T17:37:06.984Z,3.38
2022-10-06T17:39:41.520Z,2.33
2022-10-06T17:42:16.750Z,2.95
2022-10-06T17:44:48.672Z,2.30
2022-10-06T17:47:20.618Z,2.67
2022-10-06T17:49:56.709Z,3.15
2022-10-06T17:52:28.672Z,13.65
2022-10-06T17:55:00.625Z,5.60
2022-10-06T17:57:33.686Z,3.03
2022-10-06T18:00:07.566Z,2.92
2022-10-06T18:03:12.282Z,2.70
2022-10-06T18:05:53.306Z,2.22
2022-10-06T18:08:26.861Z,2.85
2022-10-06T18:11:18.446Z,2.97
2022-10-06T18:13:51.219Z,2.90
2022-10-06T18:16:25.517Z,1.85
2022-10-06T18:19:02.734Z,2.67
2022-10-06T18:21:40.054Z,2.60
2022-10-06T18:24:16.389Z,3.63
2022-10-06T18:26:49.983Z,2.58
2022-10-06T18:29:25.042Z,2.67
2022-10-06T18:32:09.060Z,2.20
2022-10-06T18:37:42.485Z,2.08
2022-10-06T18:40:14.933Z,2.95
2022-10-06T18:42:46.860Z,2.60
2022-10-06T18:45:39.567Z,3.00
2022-10-06T18:48:29.875Z,2.92
2022-10-06T18:51:02.718Z,2.58
2022-10-06T18:53:38.480Z,2.58
2022-10-06T18:56:10.814Z,3.45
2022-10-06T18:58:47.194Z,3.40
2022-10-06T19:01:19.635Z,2.58
2022-10-06T19:03:52.254Z,2.45
2022-10-06T19:06:27.043Z,2.28
2022-10-06T19:09:01.287Z,2.47
2022-10-06T19:12:06.989Z,2.85
2022-10-06T19:14:45.757Z,2.70
2022-10-06T19:17:17.834Z,17.13
2022-10-06T19:19:55.317Z,4.38
2022-10-06T19:22:27.432Z,4.53
2022-10-06T19:25:01.157Z,3.63
2022-10-06T19:27:36.038Z,3.03
2022-10-06T19:30:08.176Z,2.75
2022-10-06T19:32:40.833Z,2.55
2022-10-06T19:35:12.858Z,3.40
2022-10-06T19:37:45.526Z,3.25
2022-10-06T19:40:19.169Z,2.67
2022-10-06T19:42:51.240Z,2.28
2022-10-06T19:45:23.384Z,2.22
2022-10-06T19:47:57.412Z,2.63
2022-10-06T19:50:30.250Z,2.63
2022-10-06T19:53:04.688Z,2.30
2022-10-06T19:55:37.973Z,2.60
2022-10-06T19:58:09.896Z,3.08
2022-10-06T20:00:42.284Z,3.35
2022-10-06T20:03:14.258Z,2.40
2022-10-06T20:05:46.312Z,2.58
2022-10-06T20:08:18.246Z,3.28
2022-10-06T20:11:00.762Z,3.13
2022-10-06T20:13:34.528Z,2.72
2022-10-06T20:16:11.196Z,2.78
2022-10-06T20:18:44.974Z,2.97
2022-10-06T20:21:20.054Z,2.83
2022-10-06T20:23:53.817Z,3.05
2022-10-06T20:26:32.002Z,2.30
2022-10-06T20:29:06.007Z,2.80
2022-10-06T20:31:39.803Z,2.38
2022-10-06T20:34:13.468Z,2.83
2022-10-06T20:36:47.412Z,3.67
2022-10-06T20:39:41.559Z,2.60
2022-10-06T20:42:15.852Z,3.10
2022-10-06T20:44:47.852Z,2.95
2022-10-06T20:47:21.243Z,2.92
2022-10-06T20:49:55.293Z,2.40
2022-10-06T20:52:27.463Z,2.75
2022-10-06T20:54:59.480Z,3.95
2022-10-06T20:57:33.930Z,2.72
2022-10-06T21:00:07.573Z,3.05
2022-10-06T21:02:39.613Z,2.65
2022-10-06T21:05:11.715Z,3.15
2022-10-06T21:07:44.008Z,3.22
2022-10-06T21:10:16.128Z,3.08
2022-10-06T21:12:49.524Z,3.17
2022-10-06T21:15:21.779Z,3.28
2022-10-06T21:17:53.772Z,3.47
2022-10-06T21:20:25.868Z,2.67
2022-10-06T21:22:57.868Z,2.22
2022-10-06T21:25:29.818Z,2.80
2022-10-06T21:28:04.085Z,2.80
2022-10-06T21:30:36.058Z,2.70
2022-10-06T21:33:08.039Z,2.97
2022-10-06T21:35:39.981Z,3.08
2022-10-06T21:38:12.444Z,2.75
2022-10-06T21:40:44.450Z,2.88
2022-10-06T21:43:17.844Z,2.83
2022-10-06T21:46:05.084Z,2.75
2022-10-06T21:48:43.327Z,2.78
2022-10-06T21:51:15.276Z,2.85
2022-10-06T21:53:47.419Z,2.40
2022-10-06T21:56:19.997Z,2.50
2022-10-06T21:58:55.867Z,2.70
2022-10-06T22:01:29.951Z,3.00
2022-10-06T22:04:02.877Z,4.72
2022-10-06T22:06:36.591Z,2.15
2022-10-06T22:09:13.314Z,2.85
2022-10-06T22:11:45.743Z,2.60
2022-10-06T22:14:20.068Z,2.97
2022-10-06T22:16:52.032Z,2.53
2022-10-06T22:19:24.084Z,3.05
2022-10-06T22:21:56.033Z,2.40
2022-10-06T22:24:28.175Z,2.40
2022-10-06T22:27:00.096Z,2.40
2022-10-06T22:29:33.514Z,3.92
2022-10-06T22:32:05.473Z,3.17
2022-10-06T22:34:38.128Z,2.97
2022-10-06T22:37:10.138Z,3.15
2022-10-06T22:39:42.146Z,2.42
2022-10-06T22:42:14.114Z,3.22
2022-10-06T22:44:47.524Z,3.25
2022-10-06T22:47:19.548Z,2.78
2022-10-06T22:49:51.577Z,2.45
2022-10-06T22:52:23.519Z,3.15
2022-10-06T22:54:55.521Z,3.50
2022-10-06T22:57:27.485Z,2.65
2022-10-06T23:00:00.868Z,3.13
2022-10-06T23:02:32.884Z,2.58
2022-10-06T23:05:05.667Z,3.53
2022-10-06T23:07:37.595Z,3.25
2022-10-06T23:10:10.101Z,3.60
2022-10-06T23:12:42.034Z,2.72
2022-10-06T23:15:15.618Z,3.08
2022-10-06T23:17:47.909Z,2.58
2022-10-06T23:20:20.962Z,3.03
2022-10-06T23:22:55.292Z,3.05
2022-10-06T23:25:27.477Z,3.63
2022-10-06T23:27:59.482Z,3.25
2022-10-06T23:30:35.031Z,2.83
2022-10-06T23:33:06.936Z,2.75
2022-10-06T23:38:40.613Z,2.92
2022-10-06T23:41:13.445Z,2.92
2022-10-06T23:43:45.543Z,2.88
2022-10-06T23:46:18.979Z,3.42
2022-10-06T23:48:50.949Z,2.88
2022-10-06T23:51:23.065Z,3.10
2022-10-06T23:53:55.006Z,3.47
2022-10-06T23:56:27.020Z,3.92
2022-10-06T23:58:59.014Z,3.30
